Natural Dam, Arkansas
Current Conditions -  °F | °C
As of 3:53 PM on Saturday 25 Oct 2014 (Local Time) from KFSM Reporting Station
Clear Clear  
Wind Chill: 86°   Ceiling: Unl
Heat Index: 86°   Visibility: 9mi
Dew Point: 61°   Wind: 0mph
Humidity: 43%   Direction: NA
Pressure: 30.03"   Gusts: NA
Location:  35.65°N, 94.4°W
Report Text: KFSM 252053Z 00000KT 9SM CLR 30/16 A3003 RMK AO2 SLP163 T03000161 56020
Loading
Personal Weather Stations






























Interactive Weather Map
Tropical Storm Tracking
New forecast layout! Learn more

10-Day Weather Forecast

Advertisements
Track Severe Weather on mobile